Time;durP1;ratioP1;P1;durP2;ratioP2;P2;SDS_P1;SDS_P2;PMS_P1;PMS_P2;Temp;Humidity;BMP_temperature;BMP_pressure;BME280_temperature;BME280_humidity;BME280_pressure;Samples;Min_cycle;Max_cycle;Signal;HPM_P1;HPM_P2
2022/02/26 00:00:41;;;;;;;22.43;10.23;;;;;;;0.40;100.00;98309.30;1579893;89;21535;-69
2022/02/26 00:03:08;;;;;;;24.23;11.20;;;;;;;0.40;100.00;98311.45;1634895;86;21098;-69
2022/02/26 00:05:35;;;;;;;22.20;10.80;;;;;;;0.39;100.00;98307.13;1647547;86;21131;-69
2022/02/26 00:08:01;;;;;;;22.80;10.87;;;;;;;0.40;100.00;98300.81;1644119;86;21071;-69
2022/02/26 00:10:29;;;;;;;23.17;11.07;;;;;;;0.42;100.00;98292.69;1647715;85;21150;-69
2022/02/26 00:12:56;;;;;;;23.10;10.60;;;;;;;0.40;100.00;98296.00;1664729;86;21088;-69
2022/02/26 00:15:23;;;;;;;22.93;10.87;;;;;;;0.40;100.00;98298.16;1643712;86;21588;-68
2022/02/26 00:17:50;;;;;;;23.93;11.33;;;;;;;0.40;100.00;98287.52;1642010;86;21596;-69
2022/02/26 00:20:17;;;;;;;23.53;11.17;;;;;;;0.42;100.00;98288.70;1651946;86;21628;-68
2022/02/26 00:22:45;;;;;;;23.43;10.93;;;;;;;0.38;100.00;98286.33;1645909;86;21562;-69
2022/02/26 00:25:12;;;;;;;23.73;11.27;;;;;;;0.38;100.00;98281.02;1635954;86;21043;-68
2022/02/26 00:27:39;;;;;;;25.57;12.10;;;;;;;0.38;100.00;98288.16;1656317;85;21019;-69
2022/02/26 00:30:07;;;;;;;24.07;11.50;;;;;;;0.38;100.00;98285.50;1646587;86;21581;-69
2022/02/26 00:32:34;;;;;;;23.90;10.87;;;;;;;0.37;100.00;98286.01;1622253;87;21046;-69
2022/02/26 00:35:01;;;;;;;21.60;10.40;;;;;;;0.36;100.00;98286.98;1638891;85;21110;-69
2022/02/26 00:37:28;;;;;;;23.90;10.60;;;;;;;0.36;100.00;98289.64;1643350;86;21540;-69
2022/02/26 00:39:54;;;;;;;21.97;10.07;;;;;;;0.37;100.00;98291.33;1591823;87;21042;-68
2022/02/26 00:42:22;;;;;;;20.03;9.87;;;;;;;0.38;100.00;98288.16;1610559;89;21094;-69
2022/02/26 00:44:49;;;;;;;20.73;9.83;;;;;;;0.37;100.00;98290.00;1595886;89;21023;-69
2022/02/26 00:47:16;;;;;;;20.27;9.17;;;;;;;0.38;100.00;98293.48;1658614;85;21130;-69
2022/02/26 00:49:50;;;;;;;19.33;8.57;;;;;;;0.38;100.00;98294.81;1658530;85;21112;-69
2022/02/26 00:52:28;;;;;;;17.37;8.23;;;;;;;0.37;100.00;98293.13;1645983;86;21051;-68
2022/02/26 00:54:54;;;;;;;17.57;8.00;;;;;;;0.35;100.00;98292.45;1631310;87;21042;-69
2022/02/26 00:57:21;;;;;;;17.57;8.10;;;;;;;0.34;100.00;98286.30;1631839;86;21118;-68
2022/02/26 00:59:47;;;;;;;17.57;8.13;;;;;;;0.33;100.00;98284.61;1648504;85;21075;-69
2022/02/26 01:02:17;;;;;;;16.97;7.80;;;;;;;0.33;100.00;98289.10;1637161;86;21595;-70
2022/02/26 01:04:43;;;;;;;17.20;7.87;;;;;;;0.32;100.00;98296.25;1642002;85;21582;-69
2022/02/26 01:07:10;;;;;;;14.10;7.60;;;;;;;0.33;100.00;98296.58;1659145;86;21051;-69
2022/02/26 01:09:37;;;;;;;15.33;7.53;;;;;;;0.31;100.00;98302.54;1656346;85;21050;-68
2022/02/26 01:12:06;;;;;;;15.30;7.37;;;;;;;0.34;100.00;98294.78;1643129;86;21099;-70
2022/02/26 01:14:34;;;;;;;14.37;7.03;;;;;;;0.36;100.00;98302.94;1662006;86;21131;-68
2022/02/26 01:17:03;;;;;;;15.53;7.27;;;;;;;0.37;100.00;98301.10;1655852;86;21038;-68
2022/02/26 01:19:32;;;;;;;15.20;7.53;;;;;;;0.38;100.00;98301.45;1666687;86;21099;-69
2022/02/26 01:21:59;;;;;;;14.57;7.53;;;;;;;0.37;100.00;98307.75;1645122;86;21035;-69
2022/02/26 01:24:26;;;;;;;16.30;7.90;;;;;;;0.34;100.00;98298.27;1645721;86;21571;-69
2022/02/26 01:26:54;;;;;;;17.17;8.50;;;;;;;0.35;100.00;98303.94;1652415;85;21071;-69
2022/02/26 01:29:21;;;;;;;20.10;9.50;;;;;;;0.33;100.00;98314.36;1641569;86;21052;-69
2022/02/26 01:31:48;;;;;;;20.07;10.27;;;;;;;0.29;100.00;98313.82;1653370;86;21016;-68
2022/02/26 01:34:15;;;;;;;17.77;9.13;;;;;;;0.27;100.00;98318.95;1643466;86;21033;-67
2022/02/26 01:36:42;;;;;;;18.20;9.67;;;;;;;0.22;100.00;98315.39;1658462;85;21066;-69
2022/02/26 01:39:10;;;;;;;19.47;10.10;;;;;;;0.20;100.00;98320.53;1636947;86;21189;-69
2022/02/26 01:41:38;;;;;;;20.03;9.90;;;;;;;0.20;100.00;98325.84;1653002;86;21070;-70
2022/02/26 01:44:05;;;;;;;18.30;9.30;;;;;;;0.17;100.00;98322.97;1642298;85;21047;-70
2022/02/26 01:46:33;;;;;;;19.87;9.47;;;;;;;0.17;100.00;98326.45;1646602;86;21126;-68
2022/02/26 01:49:00;;;;;;;19.27;9.73;;;;;;;0.17;100.00;98326.45;1629313;88;21519;-69
2022/02/26 01:51:29;;;;;;;19.60;10.37;;;;;;;0.17;100.00;98328.29;1639892;85;21095;-69
2022/02/26 01:53:57;;;;;;;20.63;10.47;;;;;;;0.16;100.00;98331.92;1633114;86;21086;-69
2022/02/26 01:56:24;;;;;;;19.40;9.77;;;;;;;0.19;100.00;98331.63;1639216;86;21046;-69
2022/02/26 01:58:51;;;;;;;19.93;10.33;;;;;;;0.21;100.00;98332.82;1654625;86;21102;-70
2022/02/26 02:01:19;;;;;;;21.13;10.87;;;;;;;0.23;100.00;98329.52;1646762;86;21103;-70
2022/02/26 02:03:46;;;;;;;19.70;10.00;;;;;;;0.23;100.00;98336.16;1642371;86;21619;-69
2022/02/26 02:06:14;;;;;;;20.37;11.20;;;;;;;0.20;100.00;98341.30;1618080;87;21559;-69
2022/02/26 02:08:43;;;;;;;20.30;10.23;;;;;;;0.16;100.00;98349.20;1570169;90;21122;-69
2022/02/26 02:11:10;;;;;;;19.13;9.70;;;;;;;0.14;100.00;98353.83;1597868;89;21086;-69
2022/02/26 02:13:37;;;;;;;20.50;9.73;;;;;;;0.14;100.00;98357.34;1602469;89;21519;-69
2022/02/26 02:16:05;;;;;;;20.47;10.77;;;;;;;0.15;100.00;98360.33;1664962;86;21056;-70
2022/02/26 02:18:34;;;;;;;22.17;11.50;;;;;;;0.13;100.00;98363.63;1651699;86;21095;-68
2022/02/26 02:21:01;;;;;;;20.47;11.13;;;;;;;0.09;100.00;98366.71;1631811;86;21508;-69
2022/02/26 02:23:28;;;;;;;24.30;12.97;;;;;;;0.06;100.00;98378.98;1652405;86;21050;-70
2022/02/26 02:25:56;;;;;;;22.80;12.27;;;;;;;0.04;100.00;98382.28;1590603;89;21556;-69
2022/02/26 02:28:24;;;;;;;22.73;12.17;;;;;;;0.03;100.00;98384.08;1589491;89;21090;-69
2022/02/26 02:30:51;;;;;;;23.27;12.20;;;;;;;0.01;100.00;98392.69;1645992;86;21043;-68
2022/02/26 02:33:19;;;;;;;22.90;12.10;;;;;;;-0.03;100.00;98389.48;1607860;87;21066;-70
2022/02/26 02:35:46;;;;;;;23.00;12.70;;;;;;;-0.03;100.00;98400.62;1583799;89;21119;-69
2022/02/26 02:38:16;;;;;;;22.70;12.37;;;;;;;-0.03;100.00;98402.77;1643372;86;21149;-69
2022/02/26 02:40:46;;;;;;;23.30;12.40;;;;;;;-0.04;100.00;98407.73;1615136;87;21543;-70
2022/02/26 02:43:14;;;;;;;24.27;13.00;;;;;;;-0.04;100.00;98401.58;1615444;87;21112;-69
2022/02/26 02:45:41;;;;;;;24.13;13.43;;;;;;;-0.04;100.00;98402.41;1623455;87;21508;-69
2022/02/26 02:48:08;;;;;;;23.97;12.77;;;;;;;-0.02;100.00;98403.60;1621684;88;21131;-70
2022/02/26 02:50:36;;;;;;;25.17;13.37;;;;;;;-0.02;100.00;98408.92;1620117;88;21070;-69
2022/02/26 02:53:03;;;;;;;22.20;11.50;;;;;;;-0.02;100.00;98406.26;1616851;87;21048;-70
2022/02/26 02:55:30;;;;;;;25.07;13.17;;;;;;;-0.01;100.00;98405.30;1628465;88;21047;-70
2022/02/26 02:57:57;;;;;;;22.30;11.27;;;;;;;0.01;100.00;98412.62;1605252;88;21547;-70
2022/02/26 03:00:24;;;;;;;23.80;12.47;;;;;;;0.04;100.00;98407.03;1627127;87;21085;-70
2022/02/26 03:02:51;;;;;;;23.97;12.13;;;;;;;0.07;100.00;98404.56;1612765;87;21031;-69
2022/02/26 03:05:21;;;;;;;23.27;12.50;;;;;;;0.08;100.00;98405.75;1645053;85;21066;-69
2022/02/26 03:07:50;;;;;;;24.27;12.23;;;;;;;0.10;100.00;98410.92;1648449;86;21092;-69
2022/02/26 03:10:17;;;;;;;22.63;12.00;;;;;;;0.12;100.00;98411.61;1653810;86;21064;-69
2022/02/26 03:12:50;;;;;;;23.73;12.13;;;;;;;0.14;100.00;98411.83;1657417;85;21032;-70
2022/02/26 03:15:13;;;;;;;24.23;12.60;;;;;;;0.14;100.00;98410.50;1647692;86;21545;-70
2022/02/26 03:17:40;;;;;;;22.03;11.73;;;;;;;0.17;100.00;98404.88;1620897;87;21058;-69
2022/02/26 03:20:09;;;;;;;25.27;13.03;;;;;;;0.16;100.00;98404.55;1602010;89;21126;-69
2022/02/26 03:22:36;;;;;;;24.10;12.87;;;;;;;0.20;100.00;98404.27;1604724;89;21050;-70
2022/02/26 03:25:05;;;;;;;24.40;13.07;;;;;;;0.20;100.00;98409.08;1649147;86;21094;-70
2022/02/26 03:27:39;;;;;;;24.83;12.37;;;;;;;0.20;100.00;98409.08;1632157;87;21151;-70
2022/02/26 03:30:07;;;;;;;24.43;12.80;;;;;;;0.21;100.00;98413.39;1636218;86;21024;-69
2022/02/26 03:32:35;;;;;;;25.40;12.50;;;;;;;0.19;100.00;98403.41;1626370;86;21101;-69
2022/02/26 03:35:03;;;;;;;22.13;11.57;;;;;;;0.19;100.00;98402.08;1613942;87;21083;-69
2022/02/26 03:37:31;;;;;;;24.87;13.10;;;;;;;0.18;100.00;98405.73;1604593;89;21058;-69
2022/02/26 03:39:58;;;;;;;25.93;12.97;;;;;;;0.17;100.00;98404.88;1599021;89;21090;-70
2022/02/26 03:42:26;;;;;;;26.67;14.10;;;;;;;0.14;100.00;98414.49;1604934;89;21102;-70
2022/02/26 03:44:53;;;;;;;24.73;13.67;;;;;;;0.12;100.00;98412.44;1597249;89;21626;-70
2022/02/26 03:47:20;;;;;;;25.80;13.43;;;;;;;0.12;100.00;98418.26;1589253;89;21511;-69
2022/02/26 03:49:47;;;;;;;25.00;13.27;;;;;;;0.11;100.00;98427.23;1599204;89;21066;-70
2022/02/26 03:52:14;;;;;;;25.37;13.27;;;;;;;0.08;100.00;98431.00;1609473;86;21063;-70
2022/02/26 03:54:41;;;;;;;25.60;13.37;;;;;;;0.09;100.00;98431.83;1647786;86;21035;-70
2022/02/26 03:57:08;;;;;;;26.03;13.57;;;;;;;0.09;100.00;98433.16;1644741;85;21004;-70
2022/02/26 03:59:35;;;;;;;25.27;13.43;;;;;;;0.09;100.00;98427.84;1590376;88;21559;-70
2022/02/26 04:02:02;;;;;;;27.43;14.40;;;;;;;0.08;100.00;98439.47;1628536;87;21197;-69
2022/02/26 04:04:29;;;;;;;27.23;14.23;;;;;;;0.07;100.00;98435.12;1622338;88;21054;-70
2022/02/26 04:06:56;;;;;;;26.13;14.60;;;;;;;0.04;100.00;98436.27;1622398;87;21226;-70
2022/02/26 04:09:23;;;;;;;35.77;21.27;;;;;;;0.04;100.00;98442.08;1640744;86;21086;-70
2022/02/26 04:11:56;;;;;;;25.43;14.15;;;;;;;0.06;100.00;98441.44;1640514;85;21117;-70
2022/02/26 04:14:24;;;;;;;28.13;15.80;;;;;;;0.06;100.00;98450.74;1613407;87;21098;-70
2022/02/26 04:16:51;;;;;;;26.00;14.73;;;;;;;0.04;100.00;98456.20;1612509;87;21039;-70
2022/02/26 04:19:18;;;;;;;28.60;15.10;;;;;;;0.06;100.00;98467.52;1630583;86;21091;-69
2022/02/26 04:21:45;;;;;;;25.90;14.07;;;;;;;0.07;100.00;98469.67;1652683;85;21076;-69
2022/02/26 04:24:11;;;;;;;26.37;14.93;;;;;;;0.08;100.00;98474.02;1610097;87;21022;-69
2022/02/26 04:26:38;;;;;;;27.90;14.30;;;;;;;0.10;100.00;98477.37;1625002;87;21520;-70
2022/02/26 04:29:05;;;;;;;28.93;15.67;;;;;;;0.12;100.00;98482.05;1607311;87;21070;-70
2022/02/26 04:31:32;;;;;;;28.00;14.90;;;;;;;0.13;100.00;98493.88;1581547;89;21143;-70
2022/02/26 04:33:59;;;;;;;30.97;18.60;;;;;;;0.14;100.00;98500.02;1577976;89;21587;-70
2022/02/26 04:36:26;;;;;;;32.63;18.00;;;;;;;0.16;100.00;98502.04;1664739;86;21012;-70
2022/02/26 04:38:53;;;;;;;41.03;21.17;;;;;;;0.14;100.00;98500.02;1633611;86;21047;-70
2022/02/26 04:41:20;;;;;;;40.27;21.23;;;;;;;0.10;100.00;98504.78;1600108;89;21011;-70
2022/02/26 04:43:47;;;;;;;37.63;18.87;;;;;;;0.08;100.00;98506.75;1602070;89;21506;-70
2022/02/26 04:46:14;;;;;;;38.43;20.10;;;;;;;0.09;100.00;98510.23;1667402;86;21598;-69
2022/02/26 04:48:40;;;;;;;36.77;19.57;;;;;;;0.07;100.00;98522.36;1662534;86;21024;-69
2022/02/26 04:51:08;;;;;;;33.07;17.13;;;;;;;0.05;100.00;98520.31;1643219;86;21055;-70
2022/02/26 04:53:38;;;;;;;29.13;15.37;;;;;;;0.06;100.00;98517.19;1643009;86;21027;-70
2022/02/26 04:56:05;;;;;;;30.67;15.80;;;;;;;0.07;100.00;98525.48;1646471;85;21078;-70
2022/02/26 04:58:33;;;;;;;29.53;15.43;;;;;;;0.10;100.00;98526.55;1659753;85;21092;-69
2022/02/26 05:01:01;;;;;;;30.73;15.60;;;;;;;0.12;100.00;98518.77;1640051;85;21062;-70
2022/02/26 05:03:29;;;;;;;29.33;15.47;;;;;;;0.12;100.00;98524.08;1633364;85;21579;-71
2022/02/26 05:05:56;;;;;;;28.70;14.90;;;;;;;0.13;100.00;98531.08;1642198;85;21036;-70
2022/02/26 05:08:23;;;;;;;30.43;15.93;;;;;;;0.14;100.00;98535.44;1662689;86;21068;-70
2022/02/26 05:10:52;;;;;;;30.63;15.73;;;;;;;0.17;100.00;98536.95;1658092;86;21131;-70
2022/02/26 05:13:20;;;;;;;29.33;16.43;;;;;;;0.17;100.00;98539.11;1662445;86;21099;-70
2022/02/26 05:15:49;;;;;;;32.13;17.23;;;;;;;0.16;100.00;98544.10;1662254;86;21064;-71
2022/02/26 05:18:16;;;;;;;32.57;17.30;;;;;;;0.16;100.00;98540.11;1660913;86;21039;-70
2022/02/26 05:20:42;;;;;;;32.20;17.43;;;;;;;0.16;100.00;98546.76;1645265;86;21045;-70
2022/02/26 05:23:10;;;;;;;31.50;16.63;;;;;;;0.16;100.00;98548.55;1639675;84;21091;-70
2022/02/26 05:25:37;;;;;;;34.37;17.37;;;;;;;0.14;100.00;98551.84;1654412;86;21335;-70
2022/02/26 05:28:04;;;;;;;32.07;17.60;;;;;;;0.13;100.00;98557.66;1644250;86;21056;-72
2022/02/26 05:30:31;;;;;;;32.07;17.83;;;;;;;0.14;100.00;98558.49;1638658;86;21107;-70
2022/02/26 05:32:59;;;;;;;31.90;17.03;;;;;;;0.14;100.00;98571.31;1656058;86;21133;-71
2022/02/26 05:35:27;;;;;;;31.10;17.57;;;;;;;0.13;100.00;98574.94;1642852;86;21083;-71
2022/02/26 05:37:55;;;;;;;35.47;19.90;;;;;;;0.10;100.00;98563.75;1662718;86;21068;-72
2022/02/26 05:40:22;;;;;;;33.20;17.70;;;;;;;0.06;100.00;98571.17;1640844;85;21554;-71
2022/02/26 05:42:49;;;;;;;32.83;17.70;;;;;;;0.05;100.00;98572.63;1634666;86;21047;-70
2022/02/26 05:45:16;;;;;;;35.67;19.60;;;;;;;0.04;100.00;98582.94;1603424;89;21577;-71
2022/02/26 05:47:43;;;;;;;34.43;18.30;;;;;;;0.05;100.00;98578.78;1643557;85;21080;-71
2022/02/26 05:50:11;;;;;;;35.97;19.97;;;;;;;0.09;100.00;98577.55;1648629;86;21040;-72
2022/02/26 05:52:38;;;;;;;34.20;19.27;;;;;;;0.14;100.00;98589.06;1639022;86;21186;-71
2022/02/26 05:55:06;;;;;;;39.70;24.23;;;;;;;0.15;100.00;98589.42;1641264;86;21661;-71
2022/02/26 05:57:33;;;;;;;47.87;28.47;;;;;;;0.18;100.00;98586.00;1639238;86;21086;-71
2022/02/26 06:00:00;;;;;;;35.03;19.73;;;;;;;0.22;100.00;98587.05;1637907;86;21063;-70
2022/02/26 06:02:27;;;;;;;35.77;19.00;;;;;;;0.24;100.00;98591.23;1638054;86;21046;-71
2022/02/26 06:04:54;;;;;;;35.43;20.30;;;;;;;0.28;100.00;98593.13;1615510;87;21027;-71
2022/02/26 06:07:21;;;;;;;32.37;17.20;;;;;;;0.32;100.00;98592.71;1606213;89;21570;-70
2022/02/26 06:09:50;;;;;;;31.83;17.77;;;;;;;0.34;100.00;98589.91;1605298;89;21098;-71
2022/02/26 06:12:17;;;;;;;31.47;16.63;;;;;;;0.37;100.00;98590.94;1605003;89;21094;-70
2022/02/26 06:14:44;;;;;;;32.13;16.83;;;;;;;0.40;100.00;98601.30;1584304;89;21070;-71
2022/02/26 06:17:13;;;;;;;30.67;17.07;;;;;;;0.42;100.00;98603.32;1599939;89;21133;-71
2022/02/26 06:19:42;;;;;;;31.47;17.63;;;;;;;0.46;100.00;98595.90;1605148;89;21099;-72
2022/02/26 06:22:08;;;;;;;38.80;21.70;;;;;;;0.50;100.00;98610.61;1599977;89;21042;-71
2022/02/26 06:24:36;;;;;;;38.13;20.63;;;;;;;0.51;100.00;98618.45;1598716;89;21075;-71
2022/02/26 06:27:04;;;;;;;39.17;21.43;;;;;;;0.51;100.00;98622.91;1589364;89;21166;-72
2022/02/26 06:29:31;;;;;;;50.07;26.33;;;;;;;0.48;100.00;98628.50;1597891;89;21078;-70
2022/02/26 06:32:01;;;;;;;40.53;22.17;;;;;;;0.43;100.00;98638.25;1589202;89;21092;-72
2022/02/26 06:34:28;;;;;;;41.40;22.73;;;;;;;0.43;100.00;98626.79;1603074;89;21102;-73
2022/02/26 06:36:55;;;;;;;34.60;18.67;;;;;;;0.43;100.00;98640.91;1602103;89;21082;-71
2022/02/26 06:39:23;;;;;;;38.53;20.87;;;;;;;0.43;100.00;98641.41;1588828;89;21561;-72
2022/02/26 06:41:50;;;;;;;33.40;19.23;;;;;;;0.41;100.00;98644.20;1642518;86;21042;-72
2022/02/26 06:44:17;;;;;;;36.70;21.00;;;;;;;0.40;100.00;98653.16;1646052;86;21079;-70
2022/02/26 06:46:47;;;;;;;30.57;15.53;;;;;;;0.43;100.00;98654.71;1637850;86;21124;-71
2022/02/26 06:49:16;;;;;;;28.47;15.03;;;;;;;0.43;100.00;98660.86;1650783;85;21572;-69
2022/02/26 06:51:43;;;;;;;27.90;14.80;;;;;;;0.45;100.00;98656.73;1640384;86;21122;-70
2022/02/26 06:54:10;;;;;;;30.27;17.23;;;;;;;0.46;100.00;98658.39;1635676;86;21131;-71
2022/02/26 06:56:37;;;;;;;27.77;15.60;;;;;;;0.51;100.00;98661.48;1651602;85;21019;-71
2022/02/26 06:59:04;;;;;;;27.10;14.10;;;;;;;0.58;100.00;98649.79;1643599;85;21070;-69
2022/02/26 07:01:33;;;;;;;28.63;14.70;;;;;;;0.65;100.00;98649.57;1642945;86;21064;-71
2022/02/26 07:04:00;;;;;;;27.23;15.20;;;;;;;0.71;100.00;98656.50;1647774;86;21614;-69
2022/02/26 07:06:27;;;;;;;25.50;15.20;;;;;;;0.74;100.00;98658.88;1629878;86;21052;-69
2022/02/26 07:08:54;;;;;;;28.23;16.90;;;;;;;0.80;100.00;98660.59;1623233;86;21080;-70
2022/02/26 07:11:21;;;;;;;30.30;19.07;;;;;;;0.88;100.00;98652.25;1646183;86;21086;-70
2022/02/26 07:13:48;;;;;;;27.43;17.17;;;;;;;0.97;100.00;98654.55;1593551;89;21070;-70
2022/02/26 07:16:16;;;;;;;25.20;14.03;;;;;;;1.03;100.00;98656.65;1597937;89;21097;-71
2022/02/26 07:18:43;;;;;;;24.03;12.57;;;;;;;1.04;100.00;98660.97;1629802;85;21110;-71
2022/02/26 07:21:10;;;;;;;23.30;12.17;;;;;;;1.05;100.00;98667.98;1649271;86;21543;-68
2022/02/26 07:23:37;;;;;;;23.73;13.57;;;;;;;0.99;100.00;98672.54;1636242;85;21076;-70
2022/02/26 07:26:05;;;;;;;22.83;12.10;;;;;;;0.95;100.00;98688.45;1639758;86;21559;-71
2022/02/26 07:28:33;;;;;;;24.27;13.00;;;;;;;0.95;100.00;98693.28;1637513;85;21102;-70
2022/02/26 07:31:00;;;;;;;24.33;11.70;;;;;;;0.96;100.00;98694.14;1640735;86;21089;-70
2022/02/26 07:33:27;;;;;;;23.30;12.03;;;;;;;0.97;100.00;98707.78;1648040;85;21064;-71
2022/02/26 07:35:55;;;;;;;23.07;11.60;;;;;;;0.94;100.00;98716.08;1647376;86;21079;-70
2022/02/26 07:38:22;;;;;;;21.73;11.10;;;;;;;0.91;100.00;98721.17;1636233;86;21066;-69
2022/02/26 07:40:49;;;;;;;20.07;10.20;;;;;;;0.90;100.00;98723.50;1645031;86;21108;-70
2022/02/26 07:43:17;;;;;;;22.20;11.50;;;;;;;0.84;100.00;98738.69;1645518;86;21117;-71
2022/02/26 07:45:44;;;;;;;23.47;10.80;;;;;;;0.78;100.00;98743.73;1642036;85;21063;-71
2022/02/26 07:48:11;;;;;;;20.07;10.03;;;;;;;0.76;100.00;98754.50;1603780;87;21205;-72
2022/02/26 07:50:38;;;;;;;40.47;25.43;;;;;;;0.75;100.00;98763.48;1578560;89;21130;-72
2022/02/26 07:53:06;;;;;;;25.20;14.33;;;;;;;0.77;100.00;98768.67;1592443;89;21543;-70
2022/02/26 07:55:34;;;;;;;23.43;13.30;;;;;;;0.80;100.00;98768.38;1588980;89;21519;-70
2022/02/26 07:58:02;;;;;;;22.07;11.67;;;;;;;0.80;100.00;98774.55;1590237;89;21050;-69
2022/02/26 08:00:30;;;;;;;30.43;14.97;;;;;;;0.80;100.00;98778.55;1648314;86;21070;-70
2022/02/26 08:02:57;;;;;;;26.73;15.20;;;;;;;0.83;100.00;98786.23;1646648;86;21051;-70
2022/02/26 08:05:25;;;;;;;24.33;13.57;;;;;;;0.83;100.00;98786.73;1614293;87;21034;-69
2022/02/26 08:07:53;;;;;;;24.93;13.73;;;;;;;0.79;100.00;98799.47;1605292;89;21031;-69
2022/02/26 08:10:22;;;;;;;27.80;15.30;;;;;;;0.80;100.00;98800.30;1649973;86;21111;-70
2022/02/26 08:12:50;;;;;;;24.40;12.97;;;;;;;0.82;100.00;98808.52;1651999;85;21042;-70
2022/02/26 08:15:26;;;;;;;25.80;14.90;;;;;;;0.80;100.00;98808.28;1640698;85;21099;-70
2022/02/26 08:17:55;;;;;;;27.90;16.43;;;;;;;0.81;100.00;98821.95;1647851;86;21068;-70
2022/02/26 08:20:24;;;;;;;23.40;12.10;;;;;;;0.86;100.00;98824.55;1650238;84;21584;-69
2022/02/26 08:22:52;;;;;;;22.37;12.20;;;;;;;0.91;100.00;98828.13;1560242;90;21133;-70
2022/02/26 08:25:19;;;;;;;22.93;11.20;;;;;;;0.89;100.00;98828.77;1637436;86;21059;-69
2022/02/26 08:27:46;;;;;;;21.10;11.00;;;;;;;0.81;100.00;98842.75;1646973;86;21737;-70
2022/02/26 08:30:16;;;;;;;22.70;12.20;;;;;;;0.78;100.00;98843.05;1654884;86;21090;-69
2022/02/26 08:32:43;;;;;;;22.97;11.30;;;;;;;0.72;100.00;98854.22;1635436;86;21046;-69
2022/02/26 08:35:11;;;;;;;21.87;10.50;;;;;;;0.69;100.00;98859.34;1642639;86;22240;-71
2022/02/26 08:37:38;;;;;;;21.07;10.60;;;;;;;0.67;100.00;98859.95;1655058;86;21087;-70
2022/02/26 08:40:07;;;;;;;20.90;10.93;;;;;;;0.67;100.00;98864.44;1649719;86;21070;-70
2022/02/26 08:42:34;;;;;;;21.10;11.10;;;;;;;0.69;100.00;98868.66;1614439;87;21090;-70
2022/02/26 08:45:04;;;;;;;20.17;11.13;;;;;;;0.74;100.00;98865.56;1587269;89;21200;-70
2022/02/26 08:47:31;;;;;;;22.00;12.13;;;;;;;0.76;100.00;98871.59;1605856;88;21555;-71
2022/02/26 08:50:00;;;;;;;24.27;13.03;;;;;;;0.78;100.00;98871.45;1594064;89;21545;-70
2022/02/26 08:52:27;;;;;;;23.67;12.83;;;;;;;0.81;100.00;98884.00;1645035;85;21069;-68
2022/02/26 08:55:01;;;;;;;26.00;14.73;;;;;;;0.80;100.00;98890.31;1642329;86;21031;-70
2022/02/26 08:57:29;;;;;;;23.63;12.07;;;;;;;0.80;100.00;98890.31;1617301;87;21083;-70
2022/02/26 08:59:56;;;;;;;28.43;15.83;;;;;;;0.84;100.00;98891.71;1607642;89;21086;-69
2022/02/26 09:02:23;;;;;;;27.80;14.57;;;;;;;0.84;100.00;98899.70;1620935;87;21574;-70
2022/02/26 09:04:51;;;;;;;27.33;13.97;;;;;;;0.83;100.00;98896.67;1608225;88;21096;-70
2022/02/26 09:07:18;;;;;;;28.67;14.83;;;;;;;0.83;100.00;98898.50;1624620;88;21082;-69
2022/02/26 09:09:47;;;;;;;23.87;13.00;;;;;;;0.81;100.00;98900.46;1592846;88;21053;-68
2022/02/26 09:12:14;;;;;;;24.93;13.73;;;;;;;0.83;100.00;98905.98;1585674;89;21111;-69
2022/02/26 09:14:41;;;;;;;28.93;16.60;;;;;;;0.83;100.00;98904.66;1591129;89;21057;-70
2022/02/26 09:17:10;;;;;;;25.13;13.77;;;;;;;0.84;100.00;98907.68;1619185;88;21009;-70
2022/02/26 09:19:37;;;;;;;22.67;12.90;;;;;;;0.89;100.00;98897.97;1632564;87;21066;-69
2022/02/26 09:22:05;;;;;;;20.13;11.50;;;;;;;0.93;100.00;98896.20;1640722;87;21061;-70
2022/02/26 09:24:33;;;;;;;19.53;10.67;;;;;;;1.00;100.00;98897.83;1637436;85;21050;-70
2022/02/26 09:27:00;;;;;;;19.07;9.73;;;;;;;1.06;100.00;98901.30;1650820;86;21052;-69
2022/02/26 09:29:27;;;;;;;26.03;13.20;;;;;;;1.10;100.00;98903.19;1649197;86;21111;-71
2022/02/26 09:31:54;;;;;;;26.00;14.80;;;;;;;1.12;100.00;98905.22;1653064;86;21093;-69
2022/02/26 09:34:22;;;;;;;22.30;13.83;;;;;;;1.17;100.00;98906.11;1652454;86;21040;-69
2022/02/26 09:36:50;;;;;;;22.40;12.50;;;;;;;1.25;100.00;98907.60;1658014;86;21105;-69
2022/02/26 09:39:18;;;;;;;21.73;11.90;;;;;;;1.32;100.00;98896.23;1643760;86;21042;-70
2022/02/26 09:41:50;;;;;;;29.27;19.63;;;;;;;1.36;100.00;98902.13;1640573;86;21073;-70
2022/02/26 09:44:24;;;;;;;20.90;12.33;;;;;;;1.41;100.00;98899.88;1653797;86;21061;-70
2022/02/26 09:46:51;;;;;;;20.33;10.90;;;;;;;1.52;100.00;98897.56;1648036;86;21090;-69
2022/02/26 09:49:18;;;;;;;19.63;10.27;;;;;;;1.62;100.00;98898.91;1652616;86;21617;-70
2022/02/26 09:51:45;;;;;;;21.43;12.07;;;;;;;1.69;100.00;98901.34;1644013;86;20994;-69
2022/02/26 09:54:14;;;;;;;18.50;9.60;;;;;;;1.75;100.00;98905.27;1646004;87;21033;-70
2022/02/26 09:56:42;;;;;;;20.20;10.20;;;;;;;1.80;100.00;98898.52;1654842;86;21021;-69
2022/02/26 09:59:11;;;;;;;20.03;10.67;;;;;;;1.85;100.00;98905.59;1644102;86;21061;-70
2022/02/26 10:02:07;;;;;;;20.50;11.47;;;;;;;1.94;100.00;98902.56;1658218;86;21114;-72
2022/02/26 10:04:39;;;;;;;21.37;11.67;;;;;;;2.02;100.00;98899.16;1647285;86;21082;-71
2022/02/26 10:07:17;;;;;;;17.48;9.78;;;;;;;2.07;100.00;98902.23;1659657;86;21069;-71
2022/02/26 10:09:47;;;;;;;24.00;14.07;;;;;;;2.07;100.00;98906.24;1656453;86;21053;-70
2022/02/26 10:12:31;;;;;;;32.70;19.43;;;;;;;2.11;100.00;98918.80;1642098;86;21096;-69
2022/02/26 10:14:59;;;;;;;;;;;;;;;2.15;100.00;98926.37;1644817;86;21084;-71
2022/02/26 10:17:37;;;;;;;23.40;13.77;;;;;;;2.17;100.00;98932.90;1651097;86;20152;-70
2022/02/26 10:20:14;;;;;;;22.70;13.10;;;;;;;2.16;100.00;98934.73;1653873;86;21042;-70
2022/02/26 10:22:46;;;;;;;21.27;12.90;;;;;;;2.20;100.00;98941.45;1641951;86;21053;-70
2022/02/26 10:25:15;;;;;;;20.60;12.37;;;;;;;2.28;100.00;98952.25;1650176;86;21147;-71
2022/02/26 10:27:47;;;;;;;21.43;12.00;;;;;;;2.35;100.00;98950.32;1649384;86;21530;-70
2022/02/26 10:30:24;;;;;;;24.13;13.77;;;;;;;2.38;100.00;98961.55;1590104;89;21121;-70
2022/02/26 10:33:06;;;;;;;20.77;12.00;;;;;;;2.36;100.00;98966.19;1589038;89;21202;-69
2022/02/26 10:35:48;;;;;;;18.90;11.20;;;;;;;2.37;100.00;98975.02;1591129;89;21066;-69
2022/02/26 10:38:19;;;;;;;20.27;11.50;;;;;;;2.41;100.00;98975.10;1588592;89;21025;-69
2022/02/26 10:40:53;;;;;;;22.73;14.03;;;;;;;2.46;100.00;98983.02;1593845;89;21613;-70
2022/02/26 10:43:53;;;;;;;18.87;11.00;;;;;;;2.46;100.00;98988.82;1595895;89;21137;-70
2022/02/26 10:46:33;;;;;;;20.13;11.43;;;;;;;2.44;100.00;99006.34;1596446;89;21043;-70
2022/02/26 10:49:04;;;;;;;21.27;12.30;;;;;;;2.45;100.00;99007.17;1540307;92;21057;-71
2022/02/26 10:51:36;;;;;;;17.27;10.40;;;;;;;2.46;100.00;99016.37;1540094;92;21598;-70
2022/02/26 10:54:07;;;;;;;15.78;8.93;;;;;;;2.47;100.00;99025.20;1517865;92;21129;-71
2022/02/26 10:56:39;;;;;;;17.60;9.73;;;;;;;2.49;100.00;99030.41;1522843;94;21116;-69
2022/02/26 10:59:08;;;;;;;16.23;8.18;;;;;;;2.51;100.00;99037.77;1428134;99;21107;-70
2022/02/26 11:01:36;;;;;;;18.97;9.50;;;;;;;2.53;100.00;99035.29;1468197;96;21188;-71
2022/02/26 11:04:03;;;;;;;19.97;10.73;;;;;;;2.59;100.00;99035.23;1440815;96;21592;-71
2022/02/26 11:06:32;;;;;;;21.47;11.00;;;;;;;2.66;100.00;99041.17;1447325;96;21119;-70
2022/02/26 11:08:59;;;;;;;15.20;8.80;;;;;;;2.70;100.00;99035.55;1471377;96;21139;-70
2022/02/26 11:11:26;;;;;;;15.00;7.97;;;;;;;2.73;100.00;99036.09;1470498;96;21607;-69
2022/02/26 11:13:55;;;;;;;14.13;7.73;;;;;;;2.76;100.00;99045.16;1463822;97;21212;-70
2022/02/26 11:16:23;;;;;;;12.30;6.97;;;;;;;2.75;100.00;99039.45;1460831;96;21108;-69
2022/02/26 11:18:54;;;;;;;12.93;7.17;;;;;;;2.78;100.00;99051.66;1463041;96;21134;-69
2022/02/26 11:21:22;;;;;;;28.57;17.77;;;;;;;2.79;100.00;99058.19;1460621;97;21225;-70
2022/02/26 11:23:50;;;;;;;23.10;12.90;;;;;;;2.79;100.00;99063.53;1445669;98;21126;-70